sensor_id;sensor_type;location;lat;lon;timestamp;P1;durP1;ratioP1;P2;durP2;ratioP2
76826;SDS011;65788;52.284;20.890;2023-07-22T00:02:15;7.50;;;3.70;;
76826;SDS011;65788;52.284;20.890;2023-07-22T00:04:41;5.90;;;3.30;;
76826;SDS011;65788;52.284;20.890;2023-07-22T00:07:08;7.50;;;3.80;;
76826;SDS011;65788;52.284;20.890;2023-07-22T00:09:35;5.50;;;3.40;;
76826;SDS011;65788;52.284;20.890;2023-07-22T00:12:02;7.60;;;3.90;;
76826;SDS011;65788;52.284;20.890;2023-07-22T00:14:29;6.50;;;3.80;;
76826;SDS011;65788;52.284;20.890;2023-07-22T00:16:56;5.20;;;3.80;;
76826;SDS011;65788;52.284;20.890;2023-07-22T00:19:23;5.00;;;3.30;;
76826;SDS011;65788;52.284;20.890;2023-07-22T00:21:50;4.90;;;3.40;;
76826;SDS011;65788;52.284;20.890;2023-07-22T00:24:18;4.00;;;3.20;;
76826;SDS011;65788;52.284;20.890;2023-07-22T00:26:45;4.90;;;3.90;;
76826;SDS011;65788;52.284;20.890;2023-07-22T00:29:12;5.60;;;3.80;;
76826;SDS011;65788;52.284;20.890;2023-07-22T00:31:38;4.30;;;3.00;;
76826;SDS011;65788;52.284;20.890;2023-07-22T00:34:05;5.30;;;3.70;;
76826;SDS011;65788;52.284;20.890;2023-07-22T00:36:34;4.80;;;3.30;;
76826;SDS011;65788;52.284;20.890;2023-07-22T00:39:01;5.40;;;3.40;;
76826;SDS011;65788;52.284;20.890;2023-07-22T00:41:28;4.30;;;3.30;;
76826;SDS011;65788;52.284;20.890;2023-07-22T00:43:55;5.30;;;3.60;;
76826;SDS011;65788;52.284;20.890;2023-07-22T00:46:22;5.70;;;3.40;;
76826;SDS011;65788;52.284;20.890;2023-07-22T00:48:49;5.00;;;3.30;;
76826;SDS011;65788;52.284;20.890;2023-07-22T00:51:17;6.40;;;3.80;;
76826;SDS011;65788;52.284;20.890;2023-07-22T00:53:45;5.70;;;3.30;;
76826;SDS011;65788;52.284;20.890;2023-07-22T00:56:12;6.90;;;3.60;;
76826;SDS011;65788;52.284;20.890;2023-07-22T00:58:39;5.10;;;3.90;;
76826;SDS011;65788;52.284;20.890;2023-07-22T01:01:06;4.70;;;3.40;;
76826;SDS011;65788;52.284;20.890;2023-07-22T01:03:33;4.60;;;3.80;;
76826;SDS011;65788;52.284;20.890;2023-07-22T01:06:01;4.60;;;3.50;;
76826;SDS011;65788;52.284;20.890;2023-07-22T01:10:55;4.80;;;3.30;;
76826;SDS011;65788;52.284;20.890;2023-07-22T01:13:22;5.20;;;3.50;;
76826;SDS011;65788;52.284;20.890;2023-07-22T01:15:49;4.90;;;3.30;;
76826;SDS011;65788;52.284;20.890;2023-07-22T01:18:16;3.90;;;3.30;;
76826;SDS011;65788;52.284;20.890;2023-07-22T01:20:43;5.00;;;3.40;;
76826;SDS011;65788;52.284;20.890;2023-07-22T01:23:12;4.80;;;3.50;;
76826;SDS011;65788;52.284;20.890;2023-07-22T01:25:39;5.10;;;3.70;;
76826;SDS011;65788;52.284;20.890;2023-07-22T01:28:10;6.40;;;3.70;;
76826;SDS011;65788;52.284;20.890;2023-07-22T01:30:40;5.50;;;4.20;;
76826;SDS011;65788;52.284;20.890;2023-07-22T01:33:06;6.50;;;3.50;;
76826;SDS011;65788;52.284;20.890;2023-07-22T01:35:33;4.90;;;3.80;;
76826;SDS011;65788;52.284;20.890;2023-07-22T01:38:01;6.10;;;4.10;;
76826;SDS011;65788;52.284;20.890;2023-07-22T01:40:28;5.00;;;3.50;;
76826;SDS011;65788;52.284;20.890;2023-07-22T01:42:55;5.50;;;3.80;;
76826;SDS011;65788;52.284;20.890;2023-07-22T01:45:22;4.10;;;3.50;;
76826;SDS011;65788;52.284;20.890;2023-07-22T01:47:48;6.10;;;3.60;;
76826;SDS011;65788;52.284;20.890;2023-07-22T01:50:15;4.40;;;3.40;;
76826;SDS011;65788;52.284;20.890;2023-07-22T01:52:45;6.30;;;3.90;;
76826;SDS011;65788;52.284;20.890;2023-07-22T01:55:13;6.80;;;4.60;;
76826;SDS011;65788;52.284;20.890;2023-07-22T01:57:41;5.00;;;3.80;;
76826;SDS011;65788;52.284;20.890;2023-07-22T02:00:08;5.30;;;4.20;;
76826;SDS011;65788;52.284;20.890;2023-07-22T02:02:37;5.20;;;3.80;;
76826;SDS011;65788;52.284;20.890;2023-07-22T02:05:04;6.10;;;4.10;;
76826;SDS011;65788;52.284;20.890;2023-07-22T02:09:59;5.60;;;3.60;;
76826;SDS011;65788;52.284;20.890;2023-07-22T02:12:26;5.50;;;4.40;;
76826;SDS011;65788;52.284;20.890;2023-07-22T02:14:53;6.10;;;4.60;;
76826;SDS011;65788;52.284;20.890;2023-07-22T02:17:20;6.50;;;4.50;;
76826;SDS011;65788;52.284;20.890;2023-07-22T02:19:48;6.20;;;4.30;;
76826;SDS011;65788;52.284;20.890;2023-07-22T02:22:15;6.00;;;4.50;;
76826;SDS011;65788;52.284;20.890;2023-07-22T02:24:42;5.90;;;4.00;;
76826;SDS011;65788;52.284;20.890;2023-07-22T02:27:09;5.00;;;4.10;;
76826;SDS011;65788;52.284;20.890;2023-07-22T02:29:36;5.50;;;4.70;;
76826;SDS011;65788;52.284;20.890;2023-07-22T02:32:03;5.20;;;3.90;;
76826;SDS011;65788;52.284;20.890;2023-07-22T02:34:30;5.50;;;4.20;;
76826;SDS011;65788;52.284;20.890;2023-07-22T02:36:58;6.20;;;4.50;;
76826;SDS011;65788;52.284;20.890;2023-07-22T02:39:25;6.30;;;4.80;;
76826;SDS011;65788;52.284;20.890;2023-07-22T02:41:52;6.30;;;4.50;;
76826;SDS011;65788;52.284;20.890;2023-07-22T02:44:18;5.90;;;3.90;;
76826;SDS011;65788;52.284;20.890;2023-07-22T02:46:47;6.90;;;4.30;;
76826;SDS011;65788;52.284;20.890;2023-07-22T02:49:14;7.30;;;4.50;;
76826;SDS011;65788;52.284;20.890;2023-07-22T02:51:41;5.60;;;4.20;;
76826;SDS011;65788;52.284;20.890;2023-07-22T02:54:08;5.90;;;4.40;;
76826;SDS011;65788;52.284;20.890;2023-07-22T02:56:35;5.30;;;4.00;;
76826;SDS011;65788;52.284;20.890;2023-07-22T02:59:02;6.80;;;4.30;;
76826;SDS011;65788;52.284;20.890;2023-07-22T03:01:29;7.20;;;4.20;;
76826;SDS011;65788;52.284;20.890;2023-07-22T03:03:56;5.10;;;4.00;;
76826;SDS011;65788;52.284;20.890;2023-07-22T03:06:22;5.20;;;3.80;;
76826;SDS011;65788;52.284;20.890;2023-07-22T03:08:49;5.70;;;4.20;;
76826;SDS011;65788;52.284;20.890;2023-07-22T03:13:45;6.30;;;4.20;;
76826;SDS011;65788;52.284;20.890;2023-07-22T03:16:12;5.00;;;4.10;;
76826;SDS011;65788;52.284;20.890;2023-07-22T03:18:42;5.30;;;4.00;;
76826;SDS011;65788;52.284;20.890;2023-07-22T03:21:09;6.50;;;4.20;;
76826;SDS011;65788;52.284;20.890;2023-07-22T03:23:36;4.90;;;3.90;;
76826;SDS011;65788;52.284;20.890;2023-07-22T03:26:04;6.70;;;4.20;;
76826;SDS011;65788;52.284;20.890;2023-07-22T03:28:31;6.70;;;4.30;;
76826;SDS011;65788;52.284;20.890;2023-07-22T03:30:58;5.30;;;4.30;;
76826;SDS011;65788;52.284;20.890;2023-07-22T03:33:25;6.00;;;4.80;;
76826;SDS011;65788;52.284;20.890;2023-07-22T03:35:52;6.80;;;4.40;;
76826;SDS011;65788;52.284;20.890;2023-07-22T03:38:18;5.20;;;4.10;;
76826;SDS011;65788;52.284;20.890;2023-07-22T03:40:45;5.50;;;4.70;;
76826;SDS011;65788;52.284;20.890;2023-07-22T03:43:14;6.50;;;4.20;;
76826;SDS011;65788;52.284;20.890;2023-07-22T03:45:41;5.90;;;4.00;;
76826;SDS011;65788;52.284;20.890;2023-07-22T03:48:07;5.90;;;4.20;;
76826;SDS011;65788;52.284;20.890;2023-07-22T03:50:35;7.60;;;4.50;;
76826;SDS011;65788;52.284;20.890;2023-07-22T03:53:02;6.00;;;4.30;;
76826;SDS011;65788;52.284;20.890;2023-07-22T03:55:29;5.80;;;4.50;;
76826;SDS011;65788;52.284;20.890;2023-07-22T03:57:56;6.20;;;4.90;;
76826;SDS011;65788;52.284;20.890;2023-07-22T04:00:25;4.90;;;4.20;;
76826;SDS011;65788;52.284;20.890;2023-07-22T04:03:01;6.00;;;4.30;;
76826;SDS011;65788;52.284;20.890;2023-07-22T04:05:35;5.10;;;4.20;;
76826;SDS011;65788;52.284;20.890;2023-07-22T04:08:01;6.90;;;4.50;;
76826;SDS011;65788;52.284;20.890;2023-07-22T04:10:28;5.60;;;4.60;;
76826;SDS011;65788;52.284;20.890;2023-07-22T04:12:55;6.90;;;5.30;;
76826;SDS011;65788;52.284;20.890;2023-07-22T04:15:22;5.40;;;4.80;;
76826;SDS011;65788;52.284;20.890;2023-07-22T04:17:49;6.50;;;4.90;;
76826;SDS011;65788;52.284;20.890;2023-07-22T04:20:16;9.50;;;5.80;;
76826;SDS011;65788;52.284;20.890;2023-07-22T04:22:44;8.10;;;5.80;;
76826;SDS011;65788;52.284;20.890;2023-07-22T04:25:11;9.30;;;5.50;;
76826;SDS011;65788;52.284;20.890;2023-07-22T04:27:38;6.30;;;4.90;;
76826;SDS011;65788;52.284;20.890;2023-07-22T04:30:05;7.20;;;6.20;;
76826;SDS011;65788;52.284;20.890;2023-07-22T04:32:32;7.40;;;6.00;;
76826;SDS011;65788;52.284;20.890;2023-07-22T04:34:59;9.60;;;6.40;;
76826;SDS011;65788;52.284;20.890;2023-07-22T04:37:27;6.90;;;6.00;;
76826;SDS011;65788;52.284;20.890;2023-07-22T04:39:54;10.00;;;5.90;;
76826;SDS011;65788;52.284;20.890;2023-07-22T04:42:22;6.80;;;6.10;;
76826;SDS011;65788;52.284;20.890;2023-07-22T04:44:49;6.90;;;5.80;;
76826;SDS011;65788;52.284;20.890;2023-07-22T04:47:15;7.60;;;6.10;;
76826;SDS011;65788;52.284;20.890;2023-07-22T04:49:42;7.30;;;6.00;;
76826;SDS011;65788;52.284;20.890;2023-07-22T04:52:09;6.60;;;5.20;;
76826;SDS011;65788;52.284;20.890;2023-07-22T04:54:36;6.60;;;5.80;;
76826;SDS011;65788;52.284;20.890;2023-07-22T04:57:02;7.40;;;5.60;;
76826;SDS011;65788;52.284;20.890;2023-07-22T04:59:30;6.30;;;5.50;;
76826;SDS011;65788;52.284;20.890;2023-07-22T05:01:56;7.20;;;6.10;;
76826;SDS011;65788;52.284;20.890;2023-07-22T05:04:23;6.20;;;5.30;;
76826;SDS011;65788;52.284;20.890;2023-07-22T05:06:50;9.00;;;5.00;;
76826;SDS011;65788;52.284;20.890;2023-07-22T05:09:17;8.10;;;5.50;;
76826;SDS011;65788;52.284;20.890;2023-07-22T05:11:44;10.60;;;5.70;;
76826;SDS011;65788;52.284;20.890;2023-07-22T05:14:11;5.50;;;4.60;;
76826;SDS011;65788;52.284;20.890;2023-07-22T05:16:38;8.90;;;5.60;;
76826;SDS011;65788;52.284;20.890;2023-07-22T05:19:05;6.70;;;5.30;;
76826;SDS011;65788;52.284;20.890;2023-07-22T05:21:31;6.20;;;5.50;;
76826;SDS011;65788;52.284;20.890;2023-07-22T05:23:58;8.50;;;4.90;;
76826;SDS011;65788;52.284;20.890;2023-07-22T05:26:26;8.70;;;4.70;;
76826;SDS011;65788;52.284;20.890;2023-07-22T05:28:53;5.70;;;4.50;;
76826;SDS011;65788;52.284;20.890;2023-07-22T05:31:20;7.30;;;4.60;;
76826;SDS011;65788;52.284;20.890;2023-07-22T05:33:47;6.30;;;4.80;;
76826;SDS011;65788;52.284;20.890;2023-07-22T05:36:15;7.00;;;5.00;;
76826;SDS011;65788;52.284;20.890;2023-07-22T05:38:41;7.10;;;5.70;;
76826;SDS011;65788;52.284;20.890;2023-07-22T05:41:08;6.70;;;5.00;;
76826;SDS011;65788;52.284;20.890;2023-07-22T05:43:35;5.70;;;4.70;;
76826;SDS011;65788;52.284;20.890;2023-07-22T05:46:02;9.20;;;5.00;;
76826;SDS011;65788;52.284;20.890;2023-07-22T05:48:29;7.70;;;5.20;;
76826;SDS011;65788;52.284;20.890;2023-07-22T05:50:55;8.30;;;5.70;;
76826;SDS011;65788;52.284;20.890;2023-07-22T05:53:22;6.70;;;4.90;;
76826;SDS011;65788;52.284;20.890;2023-07-22T05:55:49;6.60;;;5.30;;
76826;SDS011;65788;52.284;20.890;2023-07-22T05:58:16;6.20;;;5.10;;
76826;SDS011;65788;52.284;20.890;2023-07-22T06:00:44;7.30;;;5.10;;
76826;SDS011;65788;52.284;20.890;2023-07-22T06:03:11;6.30;;;4.80;;
76826;SDS011;65788;52.284;20.890;2023-07-22T06:05:39;5.10;;;4.00;;
76826;SDS011;65788;52.284;20.890;2023-07-22T06:08:06;7.10;;;4.70;;
76826;SDS011;65788;52.284;20.890;2023-07-22T06:10:32;7.60;;;4.40;;
76826;SDS011;65788;52.284;20.890;2023-07-22T06:12:59;7.20;;;5.00;;
76826;SDS011;65788;52.284;20.890;2023-07-22T06:15:26;7.30;;;5.00;;
76826;SDS011;65788;52.284;20.890;2023-07-22T06:17:53;7.90;;;4.80;;
76826;SDS011;65788;52.284;20.890;2023-07-22T06:20:20;6.90;;;4.60;;
76826;SDS011;65788;52.284;20.890;2023-07-22T06:22:47;6.10;;;4.80;;
76826;SDS011;65788;52.284;20.890;2023-07-22T06:25:14;6.70;;;4.00;;
76826;SDS011;65788;52.284;20.890;2023-07-22T06:27:41;7.10;;;5.00;;
76826;SDS011;65788;52.284;20.890;2023-07-22T06:30:08;7.00;;;4.40;;
76826;SDS011;65788;52.284;20.890;2023-07-22T06:32:39;6.20;;;4.10;;
76826;SDS011;65788;52.284;20.890;2023-07-22T06:35:06;7.80;;;5.00;;
76826;SDS011;65788;52.284;20.890;2023-07-22T06:37:34;9.00;;;4.60;;
76826;SDS011;65788;52.284;20.890;2023-07-22T06:40:01;5.20;;;3.90;;
76826;SDS011;65788;52.284;20.890;2023-07-22T06:42:28;5.70;;;3.90;;
76826;SDS011;65788;52.284;20.890;2023-07-22T06:44:56;7.90;;;4.10;;
76826;SDS011;65788;52.284;20.890;2023-07-22T06:47:23;7.80;;;4.70;;
76826;SDS011;65788;52.284;20.890;2023-07-22T06:49:50;6.80;;;4.20;;
76826;SDS011;65788;52.284;20.890;2023-07-22T06:52:19;5.40;;;3.50;;
76826;SDS011;65788;52.284;20.890;2023-07-22T06:54:47;5.20;;;4.20;;
76826;SDS011;65788;52.284;20.890;2023-07-22T06:57:13;4.80;;;3.60;;
76826;SDS011;65788;52.284;20.890;2023-07-22T06:59:40;5.50;;;3.50;;
76826;SDS011;65788;52.284;20.890;2023-07-22T07:02:07;8.50;;;3.70;;
76826;SDS011;65788;52.284;20.890;2023-07-22T07:04:35;6.10;;;3.30;;
76826;SDS011;65788;52.284;20.890;2023-07-22T07:07:02;4.40;;;3.00;;
76826;SDS011;65788;52.284;20.890;2023-07-22T07:09:29;4.00;;;2.70;;
76826;SDS011;65788;52.284;20.890;2023-07-22T07:11:56;4.70;;;2.90;;
76826;SDS011;65788;52.284;20.890;2023-07-22T07:14:23;6.00;;;3.30;;
76826;SDS011;65788;52.284;20.890;2023-07-22T07:16:53;5.90;;;2.90;;
76826;SDS011;65788;52.284;20.890;2023-07-22T07:19:20;5.60;;;3.70;;
76826;SDS011;65788;52.284;20.890;2023-07-22T07:21:47;4.50;;;2.80;;
76826;SDS011;65788;52.284;20.890;2023-07-22T07:24:14;6.60;;;3.10;;
76826;SDS011;65788;52.284;20.890;2023-07-22T07:26:40;4.40;;;2.70;;
76826;SDS011;65788;52.284;20.890;2023-07-22T07:29:07;3.90;;;2.60;;
76826;SDS011;65788;52.284;20.890;2023-07-22T07:31:34;6.60;;;3.20;;
76826;SDS011;65788;52.284;20.890;2023-07-22T07:34:01;4.70;;;2.90;;
76826;SDS011;65788;52.284;20.890;2023-07-22T07:36:28;6.30;;;3.40;;
76826;SDS011;65788;52.284;20.890;2023-07-22T07:38:55;5.00;;;2.90;;
76826;SDS011;65788;52.284;20.890;2023-07-22T07:41:22;4.70;;;2.90;;
76826;SDS011;65788;52.284;20.890;2023-07-22T07:43:49;3.50;;;2.30;;
76826;SDS011;65788;52.284;20.890;2023-07-22T07:46:17;4.90;;;2.30;;
76826;SDS011;65788;52.284;20.890;2023-07-22T07:48:52;3.10;;;2.00;;
76826;SDS011;65788;52.284;20.890;2023-07-22T07:51:21;3.00;;;2.00;;
76826;SDS011;65788;52.284;20.890;2023-07-22T07:53:50;4.00;;;2.20;;
76826;SDS011;65788;52.284;20.890;2023-07-22T07:56:18;3.10;;;2.10;;
76826;SDS011;65788;52.284;20.890;2023-07-22T07:58:46;4.00;;;2.20;;
76826;SDS011;65788;52.284;20.890;2023-07-22T08:01:14;2.50;;;1.60;;
76826;SDS011;65788;52.284;20.890;2023-07-22T08:03:42;3.20;;;2.00;;
76826;SDS011;65788;52.284;20.890;2023-07-22T08:06:09;3.10;;;1.90;;
76826;SDS011;65788;52.284;20.890;2023-07-22T08:08:37;3.00;;;1.90;;
76826;SDS011;65788;52.284;20.890;2023-07-22T08:11:08;3.70;;;2.00;;
76826;SDS011;65788;52.284;20.890;2023-07-22T08:13:37;3.40;;;1.90;;
76826;SDS011;65788;52.284;20.890;2023-07-22T08:16:05;3.60;;;2.40;;
76826;SDS011;65788;52.284;20.890;2023-07-22T08:18:34;3.30;;;1.90;;
76826;SDS011;65788;52.284;20.890;2023-07-22T08:21:02;4.70;;;1.90;;
76826;SDS011;65788;52.284;20.890;2023-07-22T08:23:31;4.40;;;2.10;;
76826;SDS011;65788;52.284;20.890;2023-07-22T08:25:58;3.60;;;1.90;;
76826;SDS011;65788;52.284;20.890;2023-07-22T08:28:25;3.80;;;1.90;;
76826;SDS011;65788;52.284;20.890;2023-07-22T08:30:55;3.20;;;1.70;;
76826;SDS011;65788;52.284;20.890;2023-07-22T08:33:23;4.50;;;2.20;;
76826;SDS011;65788;52.284;20.890;2023-07-22T08:35:51;3.30;;;2.20;;
76826;SDS011;65788;52.284;20.890;2023-07-22T08:38:18;4.00;;;2.50;;
76826;SDS011;65788;52.284;20.890;2023-07-22T08:40:47;4.10;;;2.00;;
76826;SDS011;65788;52.284;20.890;2023-07-22T08:43:19;3.60;;;2.00;;
76826;SDS011;65788;52.284;20.890;2023-07-22T08:45:47;5.20;;;2.20;;
76826;SDS011;65788;52.284;20.890;2023-07-22T08:48:16;4.20;;;1.90;;
76826;SDS011;65788;52.284;20.890;2023-07-22T08:53:12;3.90;;;2.00;;
76826;SDS011;65788;52.284;20.890;2023-07-22T08:55:40;2.90;;;1.80;;
76826;SDS011;65788;52.284;20.890;2023-07-22T08:58:08;3.30;;;1.80;;
76826;SDS011;65788;52.284;20.890;2023-07-22T09:00:36;4.60;;;2.20;;
76826;SDS011;65788;52.284;20.890;2023-07-22T09:05:32;3.40;;;2.10;;
76826;SDS011;65788;52.284;20.890;2023-07-22T09:08:03;4.40;;;1.80;;
76826;SDS011;65788;52.284;20.890;2023-07-22T09:10:33;3.20;;;1.60;;
76826;SDS011;65788;52.284;20.890;2023-07-22T09:13:00;3.20;;;2.00;;
76826;SDS011;65788;52.284;20.890;2023-07-22T09:15:28;3.80;;;2.30;;
76826;SDS011;65788;52.284;20.890;2023-07-22T09:17:55;2.90;;;1.90;;
76826;SDS011;65788;52.284;20.890;2023-07-22T09:20:22;3.30;;;1.90;;
76826;SDS011;65788;52.284;20.890;2023-07-22T09:22:50;4.10;;;2.30;;
76826;SDS011;65788;52.284;20.890;2023-07-22T09:27:46;4.30;;;2.00;;
76826;SDS011;65788;52.284;20.890;2023-07-22T09:30:24;3.60;;;1.90;;
76826;SDS011;65788;52.284;20.890;2023-07-22T09:32:55;3.70;;;1.90;;
76826;SDS011;65788;52.284;20.890;2023-07-22T09:35:25;6.20;;;1.70;;
76826;SDS011;65788;52.284;20.890;2023-07-22T09:37:54;3.00;;;2.00;;
76826;SDS011;65788;52.284;20.890;2023-07-22T09:40:25;2.90;;;1.80;;
76826;SDS011;65788;52.284;20.890;2023-07-22T09:42:57;3.40;;;1.50;;
76826;SDS011;65788;52.284;20.890;2023-07-22T09:45:29;2.90;;;1.70;;
76826;SDS011;65788;52.284;20.890;2023-07-22T09:47:58;3.00;;;1.70;;
76826;SDS011;65788;52.284;20.890;2023-07-22T09:50:25;2.90;;;1.50;;
76826;SDS011;65788;52.284;20.890;2023-07-22T09:55:23;2.50;;;1.50;;
76826;SDS011;65788;52.284;20.890;2023-07-22T10:00:23;2.90;;;1.70;;
76826;SDS011;65788;52.284;20.890;2023-07-22T10:02:52;2.70;;;1.70;;
76826;SDS011;65788;52.284;20.890;2023-07-22T10:05:22;2.60;;;1.60;;
76826;SDS011;65788;52.284;20.890;2023-07-22T10:07:54;2.60;;;1.50;;
76826;SDS011;65788;52.284;20.890;2023-07-22T10:10:26;6.20;;;2.00;;
76826;SDS011;65788;52.284;20.890;2023-07-22T10:12:57;3.10;;;1.60;;
76826;SDS011;65788;52.284;20.890;2023-07-22T10:15:25;4.40;;;1.80;;
76826;SDS011;65788;52.284;20.890;2023-07-22T10:17:54;4.90;;;1.90;;
76826;SDS011;65788;52.284;20.890;2023-07-22T10:20:22;2.20;;;1.60;;
76826;SDS011;65788;52.284;20.890;2023-07-22T10:22:50;4.00;;;1.50;;
76826;SDS011;65788;52.284;20.890;2023-07-22T10:25:18;4.90;;;1.70;;
76826;SDS011;65788;52.284;20.890;2023-07-22T10:27:47;2.60;;;1.50;;
76826;SDS011;65788;52.284;20.890;2023-07-22T10:30:15;3.50;;;1.60;;
76826;SDS011;65788;52.284;20.890;2023-07-22T10:38:10;5.50;;;1.80;;
76826;SDS011;65788;52.284;20.890;2023-07-22T10:43:38;3.70;;;1.90;;
76826;SDS011;65788;52.284;20.890;2023-07-22T10:46:07;3.90;;;1.60;;
76826;SDS011;65788;52.284;20.890;2023-07-22T10:48:37;2.10;;;1.30;;
76826;SDS011;65788;52.284;20.890;2023-07-22T10:51:13;3.10;;;1.70;;
76826;SDS011;65788;52.284;20.890;2023-07-22T10:53:42;2.90;;;1.50;;
76826;SDS011;65788;52.284;20.890;2023-07-22T10:56:21;2.80;;;1.60;;
76826;SDS011;65788;52.284;20.890;2023-07-22T11:12:01;2.60;;;1.30;;
76826;SDS011;65788;52.284;20.890;2023-07-22T11:14:49;2.00;;;1.30;;
76826;SDS011;65788;52.284;20.890;2023-07-22T11:17:17;2.60;;;1.30;;
76826;SDS011;65788;52.284;20.890;2023-07-22T11:19:53;3.80;;;1.60;;
76826;SDS011;65788;52.284;20.890;2023-07-22T11:22:21;3.20;;;1.50;;
76826;SDS011;65788;52.284;20.890;2023-07-22T11:24:49;1.70;;;1.20;;
76826;SDS011;65788;52.284;20.890;2023-07-22T11:27:15;3.70;;;1.40;;
76826;SDS011;65788;52.284;20.890;2023-07-22T11:29:43;2.40;;;1.60;;
76826;SDS011;65788;52.284;20.890;2023-07-22T11:32:19;3.30;;;1.50;;
76826;SDS011;65788;52.284;20.890;2023-07-22T11:34:51;1.80;;;1.20;;
76826;SDS011;65788;52.284;20.890;2023-07-22T11:37:22;3.70;;;1.50;;
76826;SDS011;65788;52.284;20.890;2023-07-22T11:39:49;1.90;;;1.30;;
76826;SDS011;65788;52.284;20.890;2023-07-22T11:42:15;3.10;;;1.80;;
76826;SDS011;65788;52.284;20.890;2023-07-22T11:44:43;4.00;;;1.80;;
76826;SDS011;65788;52.284;20.890;2023-07-22T11:47:10;3.50;;;2.00;;
76826;SDS011;65788;52.284;20.890;2023-07-22T11:49:39;3.90;;;2.10;;
76826;SDS011;65788;52.284;20.890;2023-07-22T11:52:08;3.60;;;1.80;;
76826;SDS011;65788;52.284;20.890;2023-07-22T11:54:40;3.90;;;1.60;;
76826;SDS011;65788;52.284;20.890;2023-07-22T11:57:15;3.70;;;2.10;;
76826;SDS011;65788;52.284;20.890;2023-07-22T11:59:46;3.50;;;1.80;;
76826;SDS011;65788;52.284;20.890;2023-07-22T12:02:14;4.80;;;1.90;;
76826;SDS011;65788;52.284;20.890;2023-07-22T12:04:43;3.30;;;1.60;;
76826;SDS011;65788;52.284;20.890;2023-07-22T12:07:21;4.20;;;2.10;;
76826;SDS011;65788;52.284;20.890;2023-07-22T12:09:59;4.00;;;1.80;;
76826;SDS011;65788;52.284;20.890;2023-07-22T12:12:33;4.20;;;1.70;;
76826;SDS011;65788;52.284;20.890;2023-07-22T12:15:19;3.20;;;1.80;;
76826;SDS011;65788;52.284;20.890;2023-07-22T12:20:19;4.60;;;1.50;;
76826;SDS011;65788;52.284;20.890;2023-07-22T12:22:49;3.20;;;1.70;;
76826;SDS011;65788;52.284;20.890;2023-07-22T12:25:16;2.90;;;1.60;;
76826;SDS011;65788;52.284;20.890;2023-07-22T12:27:43;2.90;;;1.60;;
76826;SDS011;65788;52.284;20.890;2023-07-22T12:30:11;2.30;;;1.50;;
76826;SDS011;65788;52.284;20.890;2023-07-22T12:32:38;6.30;;;1.60;;
76826;SDS011;65788;52.284;20.890;2023-07-22T12:35:06;3.00;;;1.70;;
76826;SDS011;65788;52.284;20.890;2023-07-22T12:37:33;6.70;;;1.60;;
76826;SDS011;65788;52.284;20.890;2023-07-22T12:40:00;2.80;;;1.50;;
76826;SDS011;65788;52.284;20.890;2023-07-22T12:42:27;2.20;;;1.50;;
76826;SDS011;65788;52.284;20.890;2023-07-22T12:44:54;2.20;;;1.30;;
76826;SDS011;65788;52.284;20.890;2023-07-22T12:47:21;3.00;;;1.70;;
76826;SDS011;65788;52.284;20.890;2023-07-22T12:49:48;3.00;;;1.50;;
76826;SDS011;65788;52.284;20.890;2023-07-22T12:52:15;2.90;;;1.50;;
76826;SDS011;65788;52.284;20.890;2023-07-22T12:54:42;2.60;;;1.50;;
76826;SDS011;65788;52.284;20.890;2023-07-22T12:57:08;3.00;;;1.40;;
76826;SDS011;65788;52.284;20.890;2023-07-22T12:59:35;3.00;;;1.40;;
76826;SDS011;65788;52.284;20.890;2023-07-22T13:02:02;3.10;;;1.70;;
76826;SDS011;65788;52.284;20.890;2023-07-22T13:04:29;4.40;;;1.90;;
76826;SDS011;65788;52.284;20.890;2023-07-22T13:06:55;3.10;;;1.60;;
76826;SDS011;65788;52.284;20.890;2023-07-22T13:09:22;3.50;;;1.60;;
76826;SDS011;65788;52.284;20.890;2023-07-22T13:11:48;3.50;;;1.40;;
76826;SDS011;65788;52.284;20.890;2023-07-22T13:14:15;2.20;;;1.40;;
76826;SDS011;65788;52.284;20.890;2023-07-22T13:16:44;2.80;;;1.30;;
76826;SDS011;65788;52.284;20.890;2023-07-22T13:19:10;2.60;;;1.30;;
76826;SDS011;65788;52.284;20.890;2023-07-22T13:21:37;2.60;;;1.50;;
76826;SDS011;65788;52.284;20.890;2023-07-22T13:24:04;1.70;;;1.20;;
76826;SDS011;65788;52.284;20.890;2023-07-22T13:26:31;2.30;;;1.40;;
76826;SDS011;65788;52.284;20.890;2023-07-22T13:28:58;2.40;;;1.30;;
76826;SDS011;65788;52.284;20.890;2023-07-22T13:31:25;2.90;;;1.50;;
76826;SDS011;65788;52.284;20.890;2023-07-22T13:33:51;2.70;;;1.50;;
76826;SDS011;65788;52.284;20.890;2023-07-22T13:36:18;4.40;;;1.80;;
76826;SDS011;65788;52.284;20.890;2023-07-22T13:38:44;3.40;;;1.60;;
76826;SDS011;65788;52.284;20.890;2023-07-22T13:41:12;3.70;;;1.50;;
76826;SDS011;65788;52.284;20.890;2023-07-22T13:43:38;4.10;;;1.60;;
76826;SDS011;65788;52.284;20.890;2023-07-22T13:46:05;3.80;;;1.80;;
76826;SDS011;65788;52.284;20.890;2023-07-22T13:48:32;3.30;;;1.60;;
76826;SDS011;65788;52.284;20.890;2023-07-22T13:50:59;5.00;;;1.70;;
76826;SDS011;65788;52.284;20.890;2023-07-22T13:53:26;2.50;;;1.40;;
76826;SDS011;65788;52.284;20.890;2023-07-22T13:55:52;2.80;;;1.40;;
76826;SDS011;65788;52.284;20.890;2023-07-22T13:58:19;3.10;;;1.40;;
76826;SDS011;65788;52.284;20.890;2023-07-22T14:00:46;3.40;;;1.30;;
76826;SDS011;65788;52.284;20.890;2023-07-22T14:03:14;3.50;;;1.70;;
76826;SDS011;65788;52.284;20.890;2023-07-22T14:05:41;2.40;;;1.30;;
76826;SDS011;65788;52.284;20.890;2023-07-22T14:08:08;3.00;;;1.50;;
76826;SDS011;65788;52.284;20.890;2023-07-22T14:10:35;3.80;;;1.50;;
76826;SDS011;65788;52.284;20.890;2023-07-22T14:13:02;2.70;;;1.30;;
76826;SDS011;65788;52.284;20.890;2023-07-22T14:15:29;3.20;;;1.40;;
76826;SDS011;65788;52.284;20.890;2023-07-22T14:17:56;3.40;;;1.30;;
76826;SDS011;65788;52.284;20.890;2023-07-22T14:20:37;3.00;;;1.60;;
76826;SDS011;65788;52.284;20.890;2023-07-22T14:23:04;2.50;;;1.50;;
76826;SDS011;65788;52.284;20.890;2023-07-22T14:25:31;3.20;;;1.50;;
76826;SDS011;65788;52.284;20.890;2023-07-22T14:27:57;3.50;;;1.50;;
76826;SDS011;65788;52.284;20.890;2023-07-22T14:30:24;3.20;;;1.80;;
76826;SDS011;65788;52.284;20.890;2023-07-22T14:32:51;3.30;;;2.00;;
76826;SDS011;65788;52.284;20.890;2023-07-22T14:35:18;4.10;;;2.30;;
76826;SDS011;65788;52.284;20.890;2023-07-22T14:37:45;3.40;;;1.90;;
76826;SDS011;65788;52.284;20.890;2023-07-22T14:40:12;2.60;;;1.80;;
76826;SDS011;65788;52.284;20.890;2023-07-22T14:42:39;4.20;;;1.80;;
76826;SDS011;65788;52.284;20.890;2023-07-22T14:45:06;3.00;;;1.70;;
76826;SDS011;65788;52.284;20.890;2023-07-22T14:47:33;3.60;;;1.70;;
76826;SDS011;65788;52.284;20.890;2023-07-22T14:50:01;3.20;;;1.70;;
76826;SDS011;65788;52.284;20.890;2023-07-22T14:52:28;2.70;;;1.80;;
76826;SDS011;65788;52.284;20.890;2023-07-22T14:54:55;3.20;;;1.90;;
76826;SDS011;65788;52.284;20.890;2023-07-22T14:57:22;2.60;;;1.60;;
76826;SDS011;65788;52.284;20.890;2023-07-22T14:59:49;3.20;;;1.50;;
76826;SDS011;65788;52.284;20.890;2023-07-22T15:02:15;3.40;;;1.60;;
76826;SDS011;65788;52.284;20.890;2023-07-22T15:04:42;3.80;;;2.00;;
76826;SDS011;65788;52.284;20.890;2023-07-22T15:07:23;2.80;;;1.70;;
76826;SDS011;65788;52.284;20.890;2023-07-22T15:09:51;3.30;;;2.00;;
76826;SDS011;65788;52.284;20.890;2023-07-22T15:12:19;5.00;;;1.70;;
76826;SDS011;65788;52.284;20.890;2023-07-22T15:14:47;4.00;;;1.60;;
76826;SDS011;65788;52.284;20.890;2023-07-22T15:17:14;3.40;;;1.90;;
76826;SDS011;65788;52.284;20.890;2023-07-22T15:19:40;2.70;;;1.60;;
76826;SDS011;65788;52.284;20.890;2023-07-22T15:22:07;2.90;;;1.70;;